createdAt,value
2019-01-02T00:00:52.507Z,5.30
2019-01-02T00:01:57.724Z,5.20
2019-01-02T00:03:03.011Z,5.20
2019-01-02T00:04:08.468Z,5.20
2019-01-02T00:05:13.612Z,5.20
2019-01-02T00:06:19.889Z,5.20
2019-01-02T00:07:26.405Z,5.20
2019-01-02T00:08:31.648Z,5.30
2019-01-02T00:09:36.955Z,5.30
2019-01-02T00:10:42.481Z,5.20
2019-01-02T00:11:47.624Z,5.20
2019-01-02T00:12:52.744Z,5.20
2019-01-02T00:13:58.295Z,5.30
2019-01-02T00:15:03.561Z,5.20
2019-01-02T00:16:08.872Z,5.20
2019-01-02T00:17:14.263Z,5.20
2019-01-02T00:18:19.498Z,5.20
2019-01-02T00:19:24.746Z,5.20
2019-01-02T00:20:30.104Z,5.20
2019-01-02T00:21:35.398Z,5.20
2019-01-02T00:22:40.487Z,5.20
2019-01-02T00:23:45.922Z,5.20
2019-01-02T00:24:51.123Z,5.20
2019-01-02T00:25:56.358Z,5.20
2019-01-02T00:27:01.564Z,5.20
2019-01-02T00:28:06.903Z,5.20
2019-01-02T00:29:12.138Z,5.20
2019-01-02T00:30:17.401Z,5.30
2019-01-02T00:31:22.914Z,5.30
2019-01-02T00:32:28.151Z,5.30
2019-01-02T00:33:33.311Z,5.30
2019-01-02T00:34:38.860Z,5.30
2019-01-02T00:35:45.084Z,5.30
2019-01-02T00:36:50.398Z,5.30
2019-01-02T00:37:55.806Z,5.30
2019-01-02T00:39:01.021Z,5.30
2019-01-02T00:40:08.809Z,5.30
2019-01-02T00:41:14.245Z,5.20
2019-01-02T00:42:19.408Z,5.20
2019-01-02T00:43:24.637Z,5.20
2019-01-02T00:44:30.086Z,5.20
2019-01-02T00:45:36.532Z,5.20
2019-01-02T00:46:41.825Z,5.20
2019-01-02T00:47:47.242Z,5.20
2019-01-02T00:48:52.522Z,5.10
2019-01-02T00:49:57.763Z,5.10
2019-01-02T00:51:03.292Z,5.10
2019-01-02T00:52:08.441Z,5.10
2019-01-02T00:53:13.697Z,5.10
2019-01-02T00:54:19.125Z,5.10
2019-01-02T00:55:24.374Z,5.10
2019-01-02T00:56:29.585Z,5.10
2019-01-02T00:57:34.937Z,5.10
2019-01-02T00:58:40.111Z,5.20
2019-01-02T00:59:45.345Z,5.20
2019-01-02T01:00:50.863Z,5.20
2019-01-02T01:01:56.048Z,5.20
2019-01-02T01:03:01.575Z,5.20
2019-01-02T01:04:06.801Z,5.30
2019-01-02T01:05:11.966Z,5.30
2019-01-02T01:06:17.484Z,5.30
2019-01-02T01:07:22.615Z,5.30
2019-01-02T01:08:27.731Z,5.30
2019-01-02T01:09:33.073Z,5.30
2019-01-02T01:10:38.297Z,5.30
2019-01-02T01:11:43.520Z,5.40
2019-01-02T01:12:48.840Z,5.40
2019-01-02T01:13:53.921Z,5.40
2019-01-02T01:14:59.162Z,5.40
2019-01-02T01:16:04.680Z,5.30
2019-01-02T01:17:09.827Z,5.30
2019-01-02T01:18:14.998Z,5.30
2019-01-02T01:19:20.644Z,5.30
2019-01-02T01:20:25.893Z,5.40
2019-01-02T01:21:31.037Z,5.40
2019-01-02T01:22:36.438Z,5.40
2019-01-02T01:23:41.731Z,5.40
2019-01-02T01:24:46.941Z,5.40
2019-01-02T01:25:53.456Z,5.40
2019-01-02T01:26:58.567Z,5.40
2019-01-02T01:28:03.852Z,5.40
2019-01-02T01:29:09.073Z,5.40
2019-01-02T01:30:14.610Z,5.40
2019-01-02T01:31:19.815Z,5.40
2019-01-02T01:32:25.058Z,5.40
2019-01-02T01:33:30.525Z,5.40
2019-01-02T01:34:35.753Z,5.40
2019-01-02T01:35:41.058Z,5.40
2019-01-02T01:36:46.179Z,5.40
2019-01-02T01:37:55.692Z,5.40
2019-01-02T01:39:00.945Z,5.40
2019-01-02T01:40:10.097Z,5.40
2019-01-02T01:41:15.253Z,5.40
2019-01-02T01:42:20.701Z,5.40
2019-01-02T01:43:25.909Z,5.40
2019-01-02T01:44:31.191Z,5.40
2019-01-02T01:45:36.538Z,5.40
2019-01-02T01:46:41.974Z,5.40
2019-01-02T01:47:47.207Z,5.40
2019-01-02T01:48:52.748Z,5.40
2019-01-02T01:49:57.967Z,5.40
2019-01-02T01:51:03.209Z,5.40
2019-01-02T01:52:08.474Z,5.40
2019-01-02T01:53:13.959Z,5.40
2019-01-02T01:54:19.214Z,5.40
2019-01-02T01:55:24.506Z,5.40
2019-01-02T01:56:30.096Z,5.40
2019-01-02T01:57:36.171Z,5.40
2019-01-02T01:58:41.652Z,5.40
2019-01-02T01:59:46.901Z,5.40
2019-01-02T02:00:52.487Z,5.40
2019-01-02T02:01:57.611Z,5.40
2019-01-02T02:03:02.836Z,5.40
2019-01-02T02:04:08.234Z,5.40
2019-01-02T02:05:13.467Z,5.40
2019-01-02T02:06:18.667Z,5.30
2019-01-02T02:07:23.895Z,5.30
2019-01-02T02:08:29.285Z,5.30
2019-01-02T02:09:34.453Z,5.30
2019-01-02T02:10:39.682Z,5.20
2019-01-02T02:11:45.020Z,5.20
2019-01-02T02:12:50.276Z,5.10
2019-01-02T02:13:55.506Z,5.10
2019-01-02T02:15:01.112Z,5.10
2019-01-02T02:16:06.421Z,5.10
2019-01-02T02:17:11.637Z,5.00
2019-01-02T02:18:16.915Z,5.00
2019-01-02T02:19:22.363Z,5.00
2019-01-02T02:20:27.598Z,5.00
2019-01-02T02:21:32.741Z,5.00
2019-01-02T02:22:38.193Z,5.00
2019-01-02T02:23:43.328Z,5.00
2019-01-02T02:24:48.491Z,5.00
2019-01-02T02:25:54.035Z,5.00
2019-01-02T02:26:59.278Z,5.00
2019-01-02T02:28:04.527Z,5.00
2019-01-02T02:29:09.690Z,5.00
2019-01-02T02:30:15.215Z,5.10
2019-01-02T02:31:20.576Z,5.10
2019-01-02T02:32:26.064Z,5.10
2019-01-02T02:33:31.193Z,5.10
2019-01-02T02:34:36.654Z,5.10
2019-01-02T02:35:41.957Z,5.20
2019-01-02T02:36:47.443Z,5.20
2019-01-02T02:37:52.921Z,5.20
2019-01-02T02:38:58.157Z,5.20
2019-01-02T02:40:03.847Z,5.20
2019-01-02T02:41:09.124Z,5.10
2019-01-02T02:42:14.631Z,5.10
2019-01-02T02:43:20.153Z,5.00
2019-01-02T02:44:25.350Z,5.00
2019-01-02T02:45:30.579Z,5.00
2019-01-02T02:46:36.107Z,5.00
2019-01-02T02:47:41.409Z,4.90
2019-01-02T02:48:46.943Z,4.90
2019-01-02T02:49:52.369Z,4.90
2019-01-02T02:50:57.582Z,4.90
2019-01-02T02:52:02.982Z,4.90
2019-01-02T02:53:08.201Z,4.90
2019-01-02T02:54:14.612Z,4.90
2019-01-02T02:55:22.775Z,4.90
2019-01-02T02:56:28.014Z,4.90
2019-01-02T02:57:33.435Z,4.90
2019-01-02T02:58:38.651Z,4.90
2019-01-02T02:59:44.275Z,5.00
2019-01-02T03:00:49.413Z,5.00
2019-01-02T03:01:54.891Z,5.00
2019-01-02T03:03:00.425Z,5.00
2019-01-02T03:04:05.600Z,5.00
2019-01-02T03:05:12.371Z,5.00
2019-01-02T03:06:17.921Z,5.00
2019-01-02T03:07:23.214Z,5.00
2019-01-02T03:08:28.489Z,5.00
2019-01-02T03:09:33.893Z,5.10
2019-01-02T03:10:39.039Z,5.10
2019-01-02T03:11:44.585Z,5.10
2019-01-02T03:12:49.713Z,5.10
2019-01-02T03:13:55.241Z,5.10
2019-01-02T03:15:00.595Z,5.10
2019-01-02T03:16:05.841Z,5.20
2019-01-02T03:17:11.581Z,5.20
2019-01-02T03:18:17.145Z,5.20
2019-01-02T03:19:22.282Z,5.20
2019-01-02T03:20:27.847Z,5.30
2019-01-02T03:21:33.094Z,5.30
2019-01-02T03:22:38.634Z,5.30
2019-01-02T03:23:44.355Z,5.30
2019-01-02T03:24:49.467Z,5.40
2019-01-02T03:25:55.036Z,5.40
2019-01-02T03:27:00.447Z,5.40
2019-01-02T03:28:05.737Z,5.50
2019-01-02T03:29:11.137Z,5.50
2019-01-02T03:30:18.614Z,5.50
2019-01-02T03:31:24.049Z,5.50
2019-01-02T03:32:29.614Z,5.60
2019-01-02T03:33:35.040Z,5.60
2019-01-02T03:34:40.153Z,5.60
2019-01-02T03:35:45.293Z,5.70
2019-01-02T03:36:50.559Z,5.70
2019-01-02T03:37:55.805Z,5.70
2019-01-02T03:39:00.933Z,5.70
2019-01-02T03:40:07.571Z,5.70
2019-01-02T03:41:12.847Z,5.70
2019-01-02T03:42:18.007Z,5.70
2019-01-02T03:43:23.248Z,5.70
2019-01-02T03:44:28.359Z,5.70
2019-01-02T03:45:33.431Z,5.70
2019-01-02T03:46:38.645Z,5.70
2019-01-02T03:47:43.790Z,5.70
2019-01-02T03:48:49.056Z,5.70
2019-01-02T03:49:54.242Z,5.70
2019-01-02T03:50:59.428Z,5.70
2019-01-02T03:52:04.698Z,5.70
2019-01-02T03:53:09.876Z,5.70
2019-01-02T03:54:15.019Z,5.70
2019-01-02T03:55:20.089Z,5.70
2019-01-02T03:56:25.251Z,5.60
2019-01-02T03:57:30.492Z,5.60
2019-01-02T03:58:35.704Z,5.70
2019-01-02T03:59:40.810Z,5.60
2019-01-02T04:00:46.061Z,5.60
2019-01-02T04:01:51.296Z,5.60
2019-01-02T04:02:56.467Z,5.60
2019-01-02T04:04:01.594Z,5.60
2019-01-02T04:05:08.486Z,5.60
2019-01-02T04:06:13.663Z,5.60
2019-01-02T04:07:18.845Z,5.60
2019-01-02T04:08:23.900Z,5.60
2019-01-02T04:09:29.025Z,5.70
2019-01-02T04:10:34.243Z,5.60
2019-01-02T04:11:39.440Z,5.60
2019-01-02T04:12:45.187Z,5.70
2019-01-02T04:13:50.338Z,5.70
2019-01-02T04:14:55.456Z,5.70
2019-01-02T04:16:00.707Z,5.70
2019-01-02T04:17:05.966Z,5.70
2019-01-02T04:18:11.062Z,5.70
2019-01-02T04:19:16.124Z,5.70
2019-01-02T04:20:21.175Z,5.80
2019-01-02T04:21:26.358Z,5.80
2019-01-02T04:22:31.517Z,5.80
2019-01-02T04:23:36.714Z,5.80
2019-01-02T04:24:41.883Z,5.80
2019-01-02T04:25:47.130Z,5.80
2019-01-02T04:26:52.401Z,5.80
2019-01-02T04:27:57.612Z,5.90
2019-01-02T04:29:02.766Z,5.90
2019-01-02T04:30:11.410Z,5.90
2019-01-02T04:31:16.718Z,5.90
2019-01-02T04:32:21.966Z,5.90
2019-01-02T04:33:27.118Z,5.90
2019-01-02T04:34:32.244Z,5.90
2019-01-02T04:35:40.229Z,5.90
2019-01-02T04:36:45.493Z,6.00
2019-01-02T04:37:50.786Z,6.00
2019-01-02T04:38:56.033Z,6.00
2019-01-02T04:40:01.326Z,6.00
2019-01-02T04:41:06.580Z,6.00
2019-01-02T04:42:11.820Z,6.00
2019-01-02T04:43:17.023Z,6.00
2019-01-02T04:44:22.255Z,6.00
2019-01-02T04:45:27.571Z,6.10
2019-01-02T04:46:32.748Z,6.00
2019-01-02T04:47:38.044Z,6.00
2019-01-02T04:48:43.193Z,6.00
2019-01-02T04:49:48.401Z,6.10
2019-01-02T04:50:53.721Z,6.10
2019-01-02T04:51:58.997Z,6.10
2019-01-02T04:53:04.265Z,6.10
2019-01-02T04:54:09.520Z,6.10
2019-01-02T04:55:14.751Z,6.10
2019-01-02T04:56:19.950Z,6.10
2019-01-02T04:57:25.182Z,6.10
2019-01-02T04:58:30.500Z,6.10
2019-01-02T04:59:35.743Z,6.10
2019-01-02T05:00:41.025Z,6.10
2019-01-02T05:01:46.340Z,6.20
2019-01-02T05:02:51.715Z,6.10
2019-01-02T05:03:56.999Z,6.10
2019-01-02T05:05:02.216Z,6.10
2019-01-02T05:06:07.399Z,6.10
2019-01-02T05:07:12.679Z,6.10
2019-01-02T05:08:17.848Z,6.10
2019-01-02T05:09:23.117Z,6.10
2019-01-02T05:10:28.419Z,6.10
2019-01-02T05:11:33.679Z,6.10
2019-01-02T05:12:38.950Z,6.10
2019-01-02T05:13:44.190Z,6.10
2019-01-02T05:14:49.411Z,6.00
2019-01-02T05:15:54.802Z,6.00
2019-01-02T05:17:00.054Z,6.10
2019-01-02T05:18:05.260Z,6.00
2019-01-02T05:19:10.492Z,6.10
2019-01-02T05:20:16.610Z,6.00
2019-01-02T05:21:21.871Z,6.00
2019-01-02T05:22:27.176Z,6.00
2019-01-02T05:23:32.465Z,6.00
2019-01-02T05:24:37.662Z,6.00
2019-01-02T05:25:42.915Z,6.00
2019-01-02T05:26:48.233Z,6.00
2019-01-02T05:27:53.425Z,6.00
2019-01-02T05:28:58.670Z,6.00
2019-01-02T05:30:04.287Z,6.00
2019-01-02T05:31:09.556Z,6.00
2019-01-02T05:32:14.710Z,6.00
2019-01-02T05:33:19.908Z,6.00
2019-01-02T05:34:25.160Z,6.00
2019-01-02T05:35:30.478Z,6.10
2019-01-02T05:36:35.751Z,6.00
2019-01-02T05:37:40.970Z,6.00
2019-01-02T05:38:46.255Z,6.00
2019-01-02T05:39:51.559Z,6.00
2019-01-02T05:40:57.000Z,6.00
2019-01-02T05:42:02.190Z,6.00
2019-01-02T05:43:07.471Z,6.00
2019-01-02T05:44:12.690Z,6.00
2019-01-02T05:45:17.956Z,6.00
2019-01-02T05:46:23.309Z,6.00
2019-01-02T05:47:28.610Z,6.00
2019-01-02T05:48:33.864Z,6.00
2019-01-02T05:49:39.118Z,6.00
2019-01-02T05:50:44.373Z,5.90
2019-01-02T05:51:49.686Z,5.90
2019-01-02T05:52:54.854Z,5.90
2019-01-02T05:54:00.023Z,5.90
2019-01-02T05:55:05.246Z,5.90
2019-01-02T05:56:10.530Z,5.90
2019-01-02T05:57:15.825Z,5.90
2019-01-02T05:58:20.994Z,5.90
2019-01-02T05:59:26.280Z,5.90
2019-01-02T06:00:31.507Z,5.90
2019-01-02T06:01:36.742Z,5.90
2019-01-02T06:02:41.939Z,5.90
2019-01-02T06:03:47.156Z,5.80
2019-01-02T06:04:52.474Z,5.80
2019-01-02T06:05:57.726Z,5.70
2019-01-02T06:07:03.041Z,5.70
2019-01-02T06:08:08.176Z,5.70
2019-01-02T06:09:13.440Z,5.70
2019-01-02T06:10:18.619Z,5.70
2019-01-02T06:11:23.817Z,5.70
2019-01-02T06:12:29.138Z,5.70
2019-01-02T06:13:34.446Z,5.70
2019-01-02T06:14:39.741Z,5.70
2019-01-02T06:15:44.995Z,5.70
2019-01-02T06:16:51.223Z,5.60
2019-01-02T06:17:56.485Z,5.60
2019-01-02T06:19:01.818Z,5.60
2019-01-02T06:20:08.884Z,5.60
2019-01-02T06:21:14.186Z,5.60
2019-01-02T06:22:19.442Z,5.50
2019-01-02T06:23:24.759Z,5.50
2019-01-02T06:24:31.069Z,5.50
2019-01-02T06:25:37.333Z,5.50
2019-01-02T06:26:42.614Z,5.50
2019-01-02T06:27:47.894Z,5.50
2019-01-02T06:28:53.195Z,5.50
2019-01-02T06:29:58.486Z,5.50
2019-01-02T06:31:03.766Z,5.50
2019-01-02T06:32:09.006Z,5.50
2019-01-02T06:33:14.309Z,5.50
2019-01-02T06:34:19.650Z,5.50
2019-01-02T06:35:24.837Z,5.50
2019-01-02T06:36:30.103Z,5.50
2019-01-02T06:37:35.479Z,5.50
2019-01-02T06:38:41.679Z,5.50
2019-01-02T06:39:47.040Z,5.50
2019-01-02T06:40:52.316Z,5.50
2019-01-02T06:41:57.592Z,5.50
2019-01-02T06:43:02.846Z,5.40
2019-01-02T06:44:08.165Z,5.40
2019-01-02T06:45:15.328Z,5.40
2019-01-02T06:46:20.559Z,5.40
2019-01-02T06:47:25.779Z,5.40
2019-01-02T06:48:31.173Z,5.40
2019-01-02T06:49:36.539Z,5.40
2019-01-02T06:50:41.789Z,5.40
2019-01-02T06:51:47.119Z,5.40
2019-01-02T06:52:52.403Z,5.40
2019-01-02T06:53:57.741Z,5.40
2019-01-02T06:55:03.050Z,5.40
2019-01-02T06:56:08.236Z,5.40
2019-01-02T06:57:13.519Z,5.40
2019-01-02T06:58:18.785Z,5.40
2019-01-02T06:59:23.970Z,5.40
2019-01-02T07:00:34.743Z,5.40
2019-01-02T07:01:39.980Z,5.40
2019-01-02T07:02:45.196Z,5.30
2019-01-02T07:03:50.465Z,5.30
2019-01-02T07:04:55.742Z,5.30
2019-01-02T07:06:01.001Z,5.30
2019-01-02T07:07:06.216Z,5.30
2019-01-02T07:08:11.542Z,5.30
2019-01-02T07:09:16.832Z,5.30
2019-01-02T07:10:22.232Z,5.30
2019-01-02T07:11:27.448Z,5.30
2019-01-02T07:12:32.824Z,5.30
2019-01-02T07:13:38.163Z,5.30
2019-01-02T07:14:43.446Z,5.30
2019-01-02T07:15:49.707Z,5.30
2019-01-02T07:16:55.011Z,5.20
2019-01-02T07:18:00.320Z,5.20
2019-01-02T07:19:05.759Z,5.20
2019-01-02T07:20:11.257Z,5.20
2019-01-02T07:21:17.630Z,5.10
2019-01-02T07:22:22.830Z,5.20
2019-01-02T07:23:28.178Z,5.10
2019-01-02T07:24:33.520Z,5.10
2019-01-02T07:25:38.842Z,5.20
2019-01-02T07:26:44.035Z,5.10
2019-01-02T07:27:49.246Z,5.20
2019-01-02T07:28:54.551Z,5.10
2019-01-02T07:29:59.831Z,5.20
2019-01-02T07:31:05.316Z,5.20
2019-01-02T07:32:10.417Z,5.20
2019-01-02T07:33:15.726Z,5.20
2019-01-02T07:34:42.758Z,5.20
2019-01-02T07:36:16.672Z,5.20
2019-01-02T07:37:57.434Z,5.20
2019-01-02T07:39:43.822Z,5.20
2019-01-02T07:41:21.645Z,5.20
2019-01-02T07:43:13.396Z,5.20
2019-01-02T07:45:17.491Z,5.10
2019-01-02T07:46:52.024Z,5.10
2019-01-02T07:48:40.378Z,5.10
2019-01-02T07:50:08.136Z,5.10
2019-01-02T07:51:53.132Z,5.10
2019-01-02T07:53:45.883Z,5.10
2019-01-02T07:55:28.062Z,5.10
2019-01-02T07:57:23.164Z,5.10
2019-01-02T07:59:04.862Z,5.10
2019-01-02T08:00:46.940Z,5.00
2019-01-02T08:02:20.002Z,5.00
2019-01-02T08:04:07.747Z,5.10
2019-01-02T08:05:50.962Z,5.10
2019-01-02T08:07:37.465Z,5.10
2019-01-02T08:08:59.444Z,5.10
2019-01-02T08:10:34.141Z,5.10
2019-01-02T08:12:23.343Z,5.10
2019-01-02T08:14:08.160Z,5.10
2019-01-02T08:15:49.609Z,5.10
2019-01-02T08:17:34.766Z,5.10
2019-01-02T08:19:11.210Z,5.10
2019-01-02T08:20:48.908Z,5.10
2019-01-02T08:22:29.466Z,5.10
2019-01-02T08:24:31.062Z,5.10
2019-01-02T08:26:15.306Z,5.20
2019-01-02T08:27:39.092Z,5.20
2019-01-02T08:28:59.523Z,5.30
2019-01-02T08:30:38.501Z,5.20
2019-01-02T08:32:29.976Z,5.30
2019-01-02T08:34:02.633Z,5.20
2019-01-02T08:36:09.660Z,5.30
2019-01-02T08:37:53.854Z,5.30
2019-01-02T08:39:50.309Z,5.30
2019-01-02T08:41:39.397Z,5.30
2019-01-02T08:43:34.685Z,5.30
2019-01-02T08:45:19.622Z,5.30
2019-01-02T08:47:24.118Z,5.30
2019-01-02T08:49:00.333Z,5.40
2019-01-02T08:50:45.639Z,5.50
2019-01-02T08:52:41.034Z,5.50
2019-01-02T08:54:18.953Z,5.70
2019-01-02T08:55:52.380Z,5.90
2019-01-02T08:57:47.763Z,6.10
2019-01-02T08:59:32.294Z,6.20
2019-01-02T09:01:14.188Z,6.30
2019-01-02T09:02:35.752Z,6.30
2019-01-02T09:04:04.006Z,6.40
2019-01-02T09:05:49.989Z,6.40
2019-01-02T09:07:41.001Z,6.30
2019-01-02T09:09:34.291Z,6.30
2019-01-02T09:11:19.593Z,6.20
2019-01-02T09:13:15.116Z,6.20
2019-01-02T09:14:55.448Z,6.20
2019-01-02T09:16:28.355Z,6.10
2019-01-02T09:18:13.462Z,6.10
2019-01-02T09:19:58.624Z,6.20
2019-01-02T09:21:56.958Z,6.20
2019-01-02T09:23:46.032Z,6.30
2019-01-02T09:25:35.477Z,6.50
2019-01-02T09:27:36.498Z,6.90
2019-01-02T09:29:21.135Z,7.20
2019-01-02T09:31:25.126Z,7.30
2019-01-02T09:33:16.146Z,7.50
2019-01-02T09:35:17.529Z,7.70
2019-01-02T09:37:17.128Z,7.90
2019-01-02T09:39:04.827Z,8.20
2019-01-02T09:40:41.280Z,8.50
2019-01-02T09:42:34.644Z,8.50
2019-01-02T09:44:16.509Z,8.70
2019-01-02T09:46:00.906Z,8.50
2019-01-02T09:47:50.349Z,8.60
2019-01-02T09:49:41.742Z,8.50
2019-01-02T09:51:35.452Z,8.40
2019-01-02T09:53:08.335Z,8.40
2019-01-02T09:54:48.651Z,8.50
2019-01-02T09:56:34.378Z,8.60
2019-01-02T09:58:23.519Z,8.70
2019-01-02T10:00:06.345Z,8.80
2019-01-02T10:01:37.174Z,8.90
2019-01-02T10:03:17.737Z,8.80
2019-01-02T10:04:59.571Z,8.90
2019-01-02T10:06:24.066Z,8.90
2019-01-02T10:08:01.469Z,8.90
2019-01-02T10:10:01.105Z,8.90
2019-01-02T10:11:29.231Z,8.90
2019-01-02T10:13:12.702Z,8.90
2019-01-02T10:15:17.056Z,9.00
2019-01-02T10:17:06.307Z,9.00
2019-01-02T10:18:53.763Z,9.00
2019-01-02T10:20:18.287Z,8.80
2019-01-02T10:22:01.755Z,8.80
2019-01-02T10:23:31.647Z,8.90
2019-01-02T10:25:16.803Z,9.10
2019-01-02T10:27:01.468Z,9.30
2019-01-02T10:28:45.982Z,9.20
2019-01-02T10:30:24.853Z,9.30
2019-01-02T10:31:59.091Z,9.40
2019-01-02T10:33:46.114Z,9.70
2019-01-02T10:35:27.486Z,9.80
2019-01-02T10:37:15.126Z,9.90
2019-01-02T10:38:59.600Z,9.60
2019-01-02T10:40:42.333Z,9.30
2019-01-02T10:42:23.118Z,9.10
2019-01-02T10:43:56.844Z,8.90
2019-01-02T10:45:54.148Z,8.70
2019-01-02T10:47:34.873Z,8.70
2019-01-02T10:49:24.882Z,8.50
2019-01-02T10:51:35.163Z,8.60
2019-01-02T10:53:07.877Z,8.60
2019-01-02T10:54:51.977Z,8.60
2019-01-02T10:56:19.533Z,8.60
2019-01-02T10:58:17.150Z,8.70
2019-01-02T10:59:57.496Z,8.90
2019-01-02T11:01:44.230Z,9.00
2019-01-02T11:03:33.695Z,9.00
2019-01-02T11:05:17.175Z,9.20
2019-01-02T11:07:03.192Z,9.20
2019-01-02T11:08:39.933Z,9.30
2019-01-02T11:10:24.711Z,9.30
2019-01-02T11:12:13.381Z,9.10
2019-01-02T11:13:58.687Z,9.00
2019-01-02T11:15:33.281Z,8.90
2019-01-02T11:17:15.080Z,8.80
2019-01-02T11:18:55.760Z,8.90
2019-01-02T11:20:43.444Z,8.80
2019-01-02T11:21:58.422Z,8.80
2019-01-02T11:23:36.831Z,8.90
2019-01-02T11:25:37.791Z,8.90
2019-01-02T11:27:25.153Z,8.80
2019-01-02T11:29:00.035Z,8.90
2019-01-02T11:30:47.912Z,8.80
2019-01-02T11:32:28.031Z,8.60
2019-01-02T11:34:06.456Z,8.50
2019-01-02T11:36:05.811Z,8.30
2019-01-02T11:37:57.815Z,8.20
2019-01-02T11:39:44.395Z,8.20
2019-01-02T11:41:15.829Z,8.20
2019-01-02T11:42:50.383Z,8.20
2019-01-02T11:44:21.386Z,8.20
2019-01-02T11:45:25.545Z,8.20
2019-01-02T11:46:30.707Z,8.30
2019-01-02T11:47:35.916Z,8.30
2019-01-02T11:48:41.196Z,8.20
2019-01-02T11:49:46.483Z,8.20
2019-01-02T11:50:51.732Z,8.20
2019-01-02T11:51:56.934Z,8.30
2019-01-02T11:53:02.281Z,8.40
2019-01-02T11:54:07.549Z,8.40
2019-01-02T11:55:12.780Z,8.60
2019-01-02T11:56:17.991Z,8.50
2019-01-02T11:57:23.262Z,8.50
2019-01-02T11:58:28.492Z,8.60
2019-01-02T11:59:33.804Z,8.70
2019-01-02T12:00:38.993Z,8.60
2019-01-02T12:01:44.245Z,8.60
2019-01-02T12:02:49.487Z,8.60
2019-01-02T12:03:55.788Z,8.70
2019-01-02T12:05:01.068Z,8.70
2019-01-02T12:06:06.378Z,8.80
2019-01-02T12:07:11.699Z,8.70
2019-01-02T12:08:18.041Z,8.70
2019-01-02T12:09:23.336Z,8.60
2019-01-02T12:10:28.566Z,8.60
2019-01-02T12:11:33.821Z,8.70
2019-01-02T12:12:39.106Z,8.70
2019-01-02T12:13:44.513Z,8.60
2019-01-02T12:14:49.770Z,8.60
2019-01-02T12:15:54.977Z,8.60
2019-01-02T12:17:00.169Z,8.60
2019-01-02T12:18:05.418Z,8.50
2019-01-02T12:19:10.560Z,8.50
2019-01-02T12:20:15.793Z,8.60
2019-01-02T12:21:20.990Z,8.70
2019-01-02T12:22:26.297Z,8.80
2019-01-02T12:23:31.539Z,8.70
2019-01-02T12:24:36.706Z,8.70
2019-01-02T12:25:41.982Z,8.60
2019-01-02T12:26:47.303Z,8.70
2019-01-02T12:27:52.460Z,8.80
2019-01-02T12:28:57.627Z,8.70
2019-01-02T12:30:03.949Z,8.80
2019-01-02T12:31:09.148Z,8.70
2019-01-02T12:32:14.431Z,8.60
2019-01-02T12:33:19.650Z,8.40
2019-01-02T12:34:24.810Z,8.40
2019-01-02T12:35:29.922Z,8.40
2019-01-02T12:36:35.197Z,8.40
2019-01-02T12:37:40.381Z,8.30
2019-01-02T12:38:45.610Z,8.40
2019-01-02T12:39:50.910Z,8.50
2019-01-02T12:40:56.169Z,8.50
2019-01-02T12:42:01.318Z,8.60
2019-01-02T12:43:06.612Z,8.70
2019-01-02T12:44:11.844Z,8.80
2019-01-02T12:45:17.074Z,8.80
2019-01-02T12:46:22.316Z,8.70
2019-01-02T12:47:27.646Z,8.70
2019-01-02T12:48:32.903Z,8.80
2019-01-02T12:49:38.133Z,8.70
2019-01-02T12:50:43.304Z,8.70
2019-01-02T12:51:48.530Z,8.80
2019-01-02T12:52:53.733Z,8.80
2019-01-02T12:53:58.982Z,8.80
2019-01-02T12:55:04.340Z,8.80
2019-01-02T12:56:11.522Z,8.90
2019-01-02T12:57:16.476Z,8.90
2019-01-02T12:58:21.709Z,9.00
2019-01-02T12:59:28.041Z,9.10
2019-01-02T13:00:41.593Z,9.20
2019-01-02T13:02:32.803Z,9.20
2019-01-02T13:04:14.562Z,9.20
2019-01-02T13:05:36.106Z,9.10
2019-01-02T13:07:30.078Z,9.20
2019-01-02T13:09:28.105Z,9.20
2019-01-02T13:10:46.234Z,9.30
2019-01-02T13:12:41.256Z,9.00
2019-01-02T13:14:11.789Z,8.90
2019-01-02T13:16:05.590Z,8.70
2019-01-02T13:17:53.901Z,8.60
2019-01-02T13:19:46.160Z,8.40
2019-01-02T13:20:59.100Z,8.40
2019-01-02T13:22:50.083Z,8.50
2019-01-02T13:24:35.000Z,8.50
2019-01-02T13:25:54.422Z,8.40
2019-01-02T13:27:18.879Z,8.40
2019-01-02T13:28:44.205Z,8.30
2019-01-02T13:30:24.090Z,8.40
2019-01-02T13:31:53.012Z,8.40
2019-01-02T13:33:39.117Z,8.50
2019-01-02T13:35:13.023Z,8.50
2019-01-02T13:36:33.038Z,8.60
2019-01-02T13:38:13.185Z,8.70
2019-01-02T13:39:53.712Z,8.70
2019-01-02T13:41:41.958Z,8.80
2019-01-02T13:43:38.124Z,8.70
2019-01-02T13:44:57.668Z,8.60
2019-01-02T13:46:58.967Z,8.60
2019-01-02T13:48:52.627Z,8.40
2019-01-02T13:50:10.676Z,8.20
2019-01-02T13:51:32.226Z,8.20
2019-01-02T13:52:37.477Z,8.20
2019-01-02T13:53:42.628Z,8.10
2019-01-02T13:54:47.905Z,8.10
2019-01-02T13:55:53.143Z,8.00
2019-01-02T13:56:58.360Z,8.10
2019-01-02T13:58:03.626Z,8.00
2019-01-02T13:59:09.020Z,8.20
2019-01-02T14:00:14.381Z,8.20
2019-01-02T14:01:19.611Z,8.10
2019-01-02T14:02:24.818Z,8.00
2019-01-02T14:03:30.074Z,8.00
2019-01-02T14:04:36.254Z,8.00
2019-01-02T14:05:44.580Z,8.00
2019-01-02T14:06:50.002Z,8.00
2019-01-02T14:07:55.228Z,8.00
2019-01-02T14:09:00.480Z,7.90
2019-01-02T14:10:06.300Z,8.00
2019-01-02T14:11:11.521Z,8.00
2019-01-02T14:12:16.788Z,8.00
2019-01-02T14:13:22.012Z,8.00
2019-01-02T14:14:27.277Z,8.20
2019-01-02T14:15:32.482Z,8.30
2019-01-02T14:16:37.686Z,8.30
2019-01-02T14:17:42.984Z,8.30
2019-01-02T14:18:48.208Z,8.30
2019-01-02T14:19:53.395Z,8.20
2019-01-02T14:20:58.602Z,8.20
2019-01-02T14:22:03.890Z,8.10
2019-01-02T14:23:09.195Z,7.90
2019-01-02T14:24:14.453Z,7.80
2019-01-02T14:25:19.669Z,7.80
2019-01-02T14:26:24.922Z,7.70
2019-01-02T14:27:30.165Z,7.80
2019-01-02T14:28:35.391Z,7.70
2019-01-02T14:29:40.556Z,7.60
2019-01-02T14:30:45.801Z,7.60
2019-01-02T14:31:50.966Z,7.50
2019-01-02T14:32:56.276Z,7.50
2019-01-02T14:34:01.412Z,7.30
2019-01-02T14:35:06.826Z,7.40
2019-01-02T14:36:11.963Z,7.30
2019-01-02T14:37:17.236Z,7.30
2019-01-02T14:38:22.400Z,7.30
2019-01-02T14:39:27.705Z,7.30
2019-01-02T14:40:32.801Z,7.30
2019-01-02T14:41:38.001Z,7.30
2019-01-02T14:42:43.223Z,7.40
2019-01-02T14:43:48.390Z,7.40
2019-01-02T14:44:53.613Z,7.40
2019-01-02T14:45:58.725Z,7.40
2019-01-02T14:47:04.008Z,7.30
2019-01-02T14:48:09.298Z,7.30
2019-01-02T14:49:14.586Z,7.30
2019-01-02T14:50:19.818Z,7.30
2019-01-02T14:51:25.065Z,7.30
2019-01-02T14:52:30.321Z,7.20
2019-01-02T14:53:35.694Z,7.10
2019-01-02T14:54:40.851Z,7.20
2019-01-02T14:55:46.007Z,7.20
2019-01-02T14:56:51.226Z,7.20
2019-01-02T14:57:56.526Z,7.20
2019-01-02T14:59:01.695Z,7.20
2019-01-02T15:00:10.488Z,7.20
2019-01-02T15:01:15.758Z,7.20
2019-01-02T15:02:21.081Z,7.20
2019-01-02T15:03:26.299Z,7.10
2019-01-02T15:04:31.588Z,7.10
2019-01-02T15:05:36.867Z,7.00
2019-01-02T15:06:42.110Z,7.00
2019-01-02T15:07:47.384Z,6.90
2019-01-02T15:08:52.547Z,6.80
2019-01-02T15:09:59.291Z,6.80
2019-01-02T15:11:08.209Z,6.70
2019-01-02T15:12:11.368Z,6.60
2019-01-02T15:13:16.538Z,6.50
2019-01-02T15:14:21.841Z,6.40
2019-01-02T15:15:27.146Z,6.40
2019-01-02T15:16:32.511Z,6.30
2019-01-02T15:17:37.852Z,6.30
2019-01-02T15:18:43.074Z,6.20
2019-01-02T15:19:48.374Z,6.20
2019-01-02T15:20:53.671Z,6.20
2019-01-02T15:22:04.734Z,6.10
2019-01-02T15:23:05.698Z,6.00
2019-01-02T15:24:10.963Z,6.00
2019-01-02T15:25:16.229Z,5.90
2019-01-02T15:26:21.403Z,5.90
2019-01-02T15:27:26.549Z,5.90
2019-01-02T15:28:31.673Z,5.90
2019-01-02T15:29:36.927Z,5.80
2019-01-02T15:30:42.148Z,5.80
2019-01-02T15:31:47.389Z,5.80
2019-01-02T15:32:52.565Z,5.70
2019-01-02T15:33:57.804Z,5.70
2019-01-02T15:35:03.025Z,5.70
2019-01-02T15:36:08.280Z,5.70
2019-01-02T15:37:13.554Z,5.70
2019-01-02T15:38:18.839Z,5.70
2019-01-02T15:39:24.004Z,5.60
2019-01-02T15:40:29.165Z,5.60
2019-01-02T15:41:34.449Z,5.50
2019-01-02T15:42:39.685Z,5.50
2019-01-02T15:43:44.947Z,5.50
2019-01-02T15:44:50.198Z,5.40
2019-01-02T15:45:55.438Z,5.40
2019-01-02T15:47:00.636Z,5.30
2019-01-02T15:48:05.966Z,5.40
2019-01-02T15:49:11.097Z,5.40
2019-01-02T15:50:16.412Z,5.40
2019-01-02T15:51:21.584Z,5.30
2019-01-02T15:52:27.133Z,5.30
2019-01-02T15:53:32.530Z,5.20
2019-01-02T15:54:37.861Z,5.20
2019-01-02T15:55:43.196Z,5.20
2019-01-02T15:56:48.355Z,5.10
2019-01-02T15:57:53.612Z,5.10
2019-01-02T15:58:58.785Z,5.10
2019-01-02T16:00:04.805Z,5.10
2019-01-02T16:01:10.463Z,5.10
2019-01-02T16:02:15.701Z,5.00
2019-01-02T16:03:20.933Z,5.00
2019-01-02T16:04:26.168Z,5.00
2019-01-02T16:05:31.400Z,5.00
2019-01-02T16:06:36.623Z,5.00
2019-01-02T16:07:41.866Z,4.90
2019-01-02T16:08:47.068Z,4.90
2019-01-02T16:09:55.216Z,4.90
2019-01-02T16:11:00.389Z,4.90
2019-01-02T16:12:05.616Z,4.80
2019-01-02T16:13:10.774Z,4.70
2019-01-02T16:14:17.048Z,4.70
2019-01-02T16:15:22.503Z,4.70
2019-01-02T16:16:27.883Z,4.70
2019-01-02T16:17:33.052Z,4.70
2019-01-02T16:18:38.254Z,4.70
2019-01-02T16:19:43.484Z,4.60
2019-01-02T16:20:48.800Z,4.60